Fort Morgan, CO

11:49 PM MST on December 16, 2017 (GMT -0700)
Fort Morgan

Weather History for KFMM - February, 2013

Change the Weather History Date:

Friday, February 1, 2013

  Actual Average (KAKO) Record (KAKO)
Temperature  
Mean Temperature 35 °F -  
Max Temperature 52 °F 36 °F 73 °F (2003)
Min Temperature 18 °F 13 °F -29 °F (1951)
Degree Days  
Heating Degree Days 30    
Moisture  
Dew Point 22 °F    
Average Humidity 72    
Maximum Humidity 95    
Minimum Humidity 24    
Precipitation  
Precipitation 0.00 in - - ()
Sea Level Pressure  
Sea Level Pressure 30.09 in    
Wind  
Wind Speed 6 mph (WNW)    
Max Wind Speed 30 mph    
Max Gust Speed 43 mph    
Visibility 10 miles    
Events      
Averages and records for this station are not official NWS values.
T = Trace of Precipitation, MM = Missing Value Source: NWS Daily Summary

Daily Weather History Graph

Daily Weather History Graph

Search for Another Location

Airport or City:

Trip Planner

Search our weather history database for the weather conditions in past years. The results will help you decide how hot, cold, wet, or windy it might be!

Date:

Astronomy

Feb. 01, 2013 Rise Set
Actual Time 7:04 AM MST 5:14 PM MST
Civil Twilight 6:35 AM MST 5:42 PM MST
Nautical Twilight 6:02 AM MST 6:15 PM MST
Astronomical Twilight 5:30 AM MST 6:47 PM MST
Moon 11:25 PM MST (2/1) 9:37 AM MST (2/1)
Length of Visible Light 11h 07m
Length of Day
10h 10m
Waning Gibbous, 69% of the Moon is Illuminated
Feb 1
Waning Gibbous
Feb 3
Last Quarter
Feb 10
New
Feb 17
First Quarter
Feb 25
Full

Hourly Weather History & Observations

Time (MST) Temp. Windchill Dew Point Humidity Pressure Visibility Wind Dir Wind Speed Gust Speed Precip Events Conditions
12:15 AM 23.5 °F 17.6 °F 18.3 °F 80% 30.11 in 10.0 mi NE 4.6 mph - N/A   Clear
12:35 AM 24.4 °F - 19.8 °F 82% 30.11 in 10.0 mi Calm Calm - N/A   Clear
12:55 AM 25.9 °F - 20.5 °F 80% 30.11 in 10.0 mi Calm Calm - N/A   Clear
1:15 AM 25.7 °F - 20.7 °F 81% 30.10 in 10.0 mi Calm Calm - N/A   Clear
1:35 AM 26.2 °F - 21.2 °F 81% 30.10 in 10.0 mi Calm Calm - N/A   Clear
1:55 AM 27.0 °F - 21.4 °F 79% 30.10 in 10.0 mi Calm Calm - N/A   Clear
2:15 AM 27.1 °F - 21.9 °F 81% 30.09 in 10.0 mi Calm Calm - N/A   Clear
2:35 AM 26.6 °F - 21.0 °F 79% 30.09 in 10.0 mi Calm Calm - N/A   Clear
2:55 AM 26.8 °F 22.8 °F 21.2 °F 79% 30.09 in 10.0 mi WSW 3.5 mph - N/A   Clear
3:15 AM 24.1 °F - 18.9 °F 80% 30.09 in 10.0 mi Calm Calm - N/A   Clear
3:35 AM 24.4 °F 20.1 °F 21.0 °F 87% 30.07 in 10.0 mi West 3.5 mph - N/A   Clear
3:55 AM 20.8 °F 13.2 °F 18.3 °F 90% 30.07 in 10.0 mi West 5.8 mph - N/A   Clear
4:15 AM 21.2 °F 16.4 °F 18.5 °F 89% 30.08 in 10.0 mi West 3.5 mph - N/A   Clear
4:35 AM 20.3 °F - 18.1 °F 91% 30.07 in 10.0 mi Calm Calm - N/A   Clear
4:55 AM 21.2 °F 14.9 °F 19.0 °F 91% 30.07 in 10.0 mi SW 4.6 mph - N/A   Scattered Clouds
5:15 AM 19.6 °F 13.0 °F 17.1 °F 90% 30.07 in 10.0 mi West 4.6 mph - N/A   Scattered Clouds
5:35 AM 19.4 °F 10.4 °F 17.4 °F 92% 30.07 in 10.0 mi WNW 6.9 mph - N/A   Scattered Clouds
5:55 AM 19.9 °F 12.1 °F 17.6 °F 91% 30.07 in 10.0 mi WNW 5.8 mph - N/A   Clear
6:15 AM 20.3 °F 15.4 °F 18.0 °F 91% 30.07 in 10.0 mi West 3.5 mph - N/A   Clear
6:35 AM 19.2 °F 11.3 °F 17.2 °F 92% 30.07 in 10.0 mi WSW 5.8 mph - N/A   Clear
6:55 AM 19.2 °F 9.3 °F 16.7 °F 90% 30.07 in 10.0 mi West 8.1 mph - N/A   Clear
7:15 AM 19.2 °F 14.1 °F 16.7 °F 90% 30.07 in 10.0 mi WNW 3.5 mph - N/A   Scattered Clouds
7:35 AM 18.0 °F - 15.4 °F 90% 30.07 in 10.0 mi Calm Calm - N/A   Clear
7:55 AM 19.6 °F 10.6 °F 17.4 °F 91% 30.07 in 10.0 mi WSW 6.9 mph - N/A   Scattered Clouds
8:15 AM 21.2 °F 10.1 °F 18.5 °F 89% 30.07 in 10.0 mi WSW 10.4 mph - N/A   Scattered Clouds
8:35 AM 21.9 °F 10.4 °F 19.4 °F 90% 30.08 in 10.0 mi West 11.5 mph - N/A   Scattered Clouds
8:55 AM 22.6 °F 11.3 °F 19.9 °F 89% 30.08 in 10.0 mi West 11.5 mph - N/A   Mostly Cloudy
9:15 AM 25.3 °F 14.1 °F 21.9 °F 87% 30.08 in 10.0 mi West 12.7 mph - N/A   Scattered Clouds
9:35 AM 26.8 °F 17.1 °F 22.1 °F 83% 30.07 in 10.0 mi West 10.4 mph - N/A   Scattered Clouds
9:55 AM 30.7 °F 22.6 °F 24.1 °F 76% 30.08 in 10.0 mi West 9.2 mph - N/A   Scattered Clouds
10:15 AM 33.8 °F 27.7 °F 23.9 °F 67% 30.07 in 10.0 mi West 6.9 mph - N/A   Scattered Clouds
10:55 AM 39.6 °F 34.0 °F 23.9 °F 54% 30.06 in 10.0 mi SW 8.1 mph - N/A   Mostly Cloudy
11:15 AM 41.5 °F 37.1 °F 24.1 °F 50% 30.06 in 10.0 mi WSW 6.9 mph - N/A   Mostly Cloudy
11:35 AM 42.8 °F 38.6 °F 23.9 °F 47% 30.05 in 10.0 mi SW 6.9 mph - N/A   Scattered Clouds
11:55 AM 45.3 °F 42.3 °F 24.1 °F 43% 30.04 in 10.0 mi WSW 5.8 mph - N/A   Clear
12:15 PM 46.6 °F - 23.5 °F 40% 30.03 in 10.0 mi SW 5.8 mph - N/A   Clear
12:35 PM 48.2 °F - 22.5 °F 36% 30.02 in 10.0 mi SSW 5.8 mph - N/A   Scattered Clouds
12:55 PM 48.7 °F - 20.8 °F 33% 30.01 in 10.0 mi South 5.8 mph - N/A   Clear
1:15 PM 50.9 °F - 21.7 °F 32% 30.00 in 10.0 mi South 8.1 mph - N/A   Clear
1:35 PM 52.2 °F - 19.2 °F 27% 30.00 in 10.0 mi West 10.4 mph 16.1 mph N/A   Scattered Clouds
2:15 PM 50.0 °F - 17.4 °F 28% 30.00 in 10.0 mi West 12.7 mph - N/A   Mostly Cloudy
2:35 PM 49.8 °F - 17.2 °F 27% 30.00 in 10.0 mi WNW 20.7 mph 26.5 mph N/A   Overcast
2:55 PM 51.3 °F - 18.7 °F 28% 30.00 in 10.0 mi West 18.4 mph 26.5 mph N/A   Overcast
3:15 PM 50.7 °F - 18.1 °F 28% 30.00 in 10.0 mi West 12.7 mph 24.2 mph N/A   Mostly Cloudy
3:35 PM 52.0 °F - 16.0 °F 24% 30.02 in 10.0 mi WNW 28.8 mph 42.6 mph N/A   Mostly Cloudy
3:55 PM 49.6 °F - 17.1 °F 27% 30.03 in 10.0 mi WNW 29.9 mph 39.1 mph N/A   Clear
4:15 PM 48.2 °F - 16.9 °F 29% 30.03 in 10.0 mi WNW 26.5 mph 34.5 mph N/A   Mostly Cloudy
4:35 PM 49.5 °F - 17.1 °F 28% 30.04 in 10.0 mi West 27.6 mph 39.1 mph N/A   Overcast
4:55 PM 48.0 °F - 17.6 °F 30% 30.04 in 10.0 mi West 23.0 mph 34.5 mph N/A   Mostly Cloudy
5:15 PM 44.4 °F 37.9 °F 18.0 °F 35% 30.05 in 10.0 mi West 13.8 mph - N/A   Scattered Clouds
5:35 PM 41.4 °F 32.7 °F 26.4 °F 55% 30.09 in 10.0 mi North 18.4 mph 29.9 mph N/A   Mostly Cloudy
5:55 PM 36.5 °F 28.2 °F 29.5 °F 76% 30.10 in 10.0 mi North 12.7 mph 25.3 mph N/A   Mostly Cloudy
6:15 PM 34.3 °F 24.6 °F 29.3 °F 82% 30.10 in 10.0 mi North 15.0 mph - N/A   Scattered Clouds
6:35 PM 32.9 °F 23.2 °F 29.1 °F 86% 30.11 in 10.0 mi North 13.8 mph - N/A   Clear
6:55 PM 32.4 °F 26.0 °F 28.9 °F 87% 30.13 in 10.0 mi NNW 6.9 mph - N/A   Scattered Clouds
7:15 PM 29.5 °F 25.9 °F 26.4 °F 88% 30.14 in 10.0 mi WSW 3.5 mph - N/A   Scattered Clouds
7:35 PM 31.5 °F - 28.8 °F 90% 30.15 in 10.0 mi Calm Calm - N/A   Scattered Clouds
7:55 PM 32.0 °F 23.0 °F 28.0 °F 85% 30.15 in 10.0 mi NNW 11.5 mph - N/A   Mostly Cloudy
8:15 PM 31.5 °F 21.8 °F 27.1 °F 84% 30.15 in 10.0 mi NNW 12.7 mph - N/A   Scattered Clouds
8:35 PM 31.1 °F 21.4 °F 27.3 °F 86% 30.16 in 10.0 mi NNW 12.7 mph - N/A   Clear
8:55 PM 31.1 °F 21.9 °F 27.5 °F 87% 30.16 in 10.0 mi NNW 11.5 mph - N/A   Clear
9:15 PM 29.3 °F 23.2 °F 26.2 °F 88% 30.17 in 10.0 mi NNW 5.8 mph - N/A   Clear
9:35 PM 27.9 °F 24.0 °F 25.7 °F 92% 30.17 in 10.0 mi NW 3.5 mph - N/A   Clear
9:55 PM 26.4 °F 18.9 °F 24.1 °F 91% 30.18 in 10.0 mi WNW 6.9 mph - N/A   Clear
10:15 PM 25.3 °F 14.7 °F 23.9 °F 94% 30.17 in 10.0 mi North 11.5 mph - N/A   Clear
10:35 PM 27.1 °F 16.4 °F 24.8 °F 91% 30.17 in 10.0 mi North 12.7 mph - N/A   Clear
10:55 PM 25.2 °F 17.3 °F 23.5 °F 94% 30.17 in 10.0 mi North 6.9 mph - N/A   Clear
11:15 PM 23.2 °F 16.0 °F 21.9 °F 95% 30.18 in 10.0 mi South 5.8 mph - N/A   Clear
11:35 PM 27.9 °F - 26.1 °F 93% 30.18 in 10.0 mi Calm Calm - N/A   Clear
11:55 PM 30.2 °F 26.7 °F 26.4 °F 86% 30.18 in 10.0 mi North 3.5 mph - N/A   Clear